Time;durP1;ratioP1;P1;durP2;ratioP2;P2;SDS_P1;SDS_P2;PMS_P1;PMS_P2;Temp;Humidity;BMP_temperature;BMP_pressure;BME280_temperature;BME280_humidity;BME280_pressure;Samples;Min_cycle;Max_cycle;Signal;HPM_P1;HPM_P2
2022/05/26 00:01:27;;;;;;;33.00;22.20;;;;;;;12.04;64.66;99040.77;105955;1276;97912;-64
2022/05/26 00:03:56;;;;;;;35.30;22.90;;;;;;;12.04;64.71;99042.85;106027;1276;97864;-65
2022/05/26 00:06:24;;;;;;;32.00;22.80;;;;;;;12.03;64.65;99041.88;106065;1276;112318;-65
2022/05/26 00:08:52;;;;;;;32.00;22.10;;;;;;;12.02;64.70;99037.89;106106;1276;95261;-65
2022/05/26 00:11:28;;;;;;;31.40;19.70;;;;;;;11.98;64.62;99042.60;105928;1276;107284;-65
2022/05/26 00:13:58;;;;;;;35.60;24.50;;;;;;;11.94;64.80;99044.33;105895;1276;95289;-65
2022/05/26 00:16:27;;;;;;;38.60;26.00;;;;;;;11.92;64.83;99048.79;106000;1276;98023;-65
2022/05/26 00:18:55;;;;;;;33.80;23.40;;;;;;;11.93;64.70;99047.14;105919;1276;111228;-65
2022/05/26 00:21:23;;;;;;;34.00;21.60;;;;;;;11.90;64.83;99052.27;105919;1276;95232;-65
2022/05/26 00:23:56;;;;;;;35.20;23.80;;;;;;;11.87;64.73;99051.83;105942;1276;107654;-66
2022/05/26 00:26:25;;;;;;;32.60;22.20;;;;;;;11.82;64.84;99057.19;105967;1276;98451;-67
2022/05/26 00:28:53;;;;;;;33.50;23.00;;;;;;;11.80;64.92;99063.91;105929;1276;96477;-66
2022/05/26 00:31:21;;;;;;;34.30;24.00;;;;;;;11.80;64.92;99064.46;105919;1278;111820;-66
2022/05/26 00:33:50;;;;;;;36.10;25.00;;;;;;;11.78;65.15;99060.38;105984;1278;97886;-65
2022/05/26 00:36:37;;;;;;;36.70;24.80;;;;;;;11.78;65.11;99056.47;105996;1277;108466;-66
2022/05/26 00:39:18;;;;;;;36.50;24.00;;;;;;;11.77;65.33;99061.48;105983;1276;97883;-65
2022/05/26 00:41:51;;;;;;;38.80;27.30;;;;;;;11.77;65.29;99063.29;106005;1276;96247;-66
2022/05/26 00:44:19;;;;;;;36.80;25.20;;;;;;;11.75;65.13;99067.85;105983;1276;112114;-64
2022/05/26 00:46:53;;;;;;;38.00;23.80;;;;;;;11.73;65.18;99067.64;105951;1276;98062;-66
2022/05/26 00:49:43;;;;;;;37.10;23.50;;;;;;;11.71;65.41;99069.20;105963;1274;108393;-64
2022/05/26 00:52:14;;;;;;;33.70;23.70;;;;;;;11.70;65.45;99064.67;105912;1279;97869;-65
2022/05/26 00:54:45;;;;;;;37.90;24.70;;;;;;;11.68;65.44;99065.21;105972;1276;97752;-65
2022/05/26 00:57:21;;;;;;;36.70;25.00;;;;;;;11.67;65.46;99061.39;106064;1276;111970;-64
2022/05/26 00:59:56;;;;;;;33.90;23.00;;;;;;;11.68;65.60;99065.39;106024;1276;97987;-64
2022/05/26 01:02:26;;;;;;;;;;;;;;;11.68;65.45;99066.63;106058;1276;108316;-66
2022/05/26 01:04:59;;;;;;;34.60;21.80;;;;;;;11.64;65.51;99065.52;106042;1276;97953;-65
2022/05/26 01:07:34;;;;;;;33.70;23.00;;;;;;;11.63;65.65;99067.16;105843;1276;97862;-65
2022/05/26 01:10:03;;;;;;;35.40;24.50;;;;;;;11.62;65.61;99066.16;106102;1276;112137;-64
2022/05/26 01:12:31;;;;;;;34.40;24.20;;;;;;;11.61;65.70;99065.71;106032;1276;98043;-66
2022/05/26 01:15:10;;;;;;;36.00;24.20;;;;;;;11.60;65.77;99071.65;105999;1276;107365;-68
2022/05/26 01:18:14;;;;;;;38.30;25.40;;;;;;;11.60;65.83;99066.54;105931;1276;97951;-65
2022/05/26 01:21:05;;;;;;;34.60;23.60;;;;;;;11.60;65.92;99069.23;105890;1276;97834;-66
2022/05/26 01:24:16;;;;;;;37.80;25.70;;;;;;;11.61;66.02;99067.52;105879;1276;112038;-66
2022/05/26 01:27:12;;;;;;;40.00;26.00;;;;;;;11.62;66.07;99066.39;105983;1278;97930;-64
2022/05/26 01:30:07;;;;;;;39.00;26.40;;;;;;;11.62;66.15;99064.91;106013;1276;108371;-66
2022/05/26 01:32:52;;;;;;;40.50;26.50;;;;;;;11.60;66.05;99066.86;105994;1276;97045;-65
2022/05/26 01:35:49;;;;;;;37.60;25.50;;;;;;;11.60;66.09;99069.38;105876;1276;98568;-65
2022/05/26 01:38:48;;;;;;;38.40;25.20;;;;;;;11.61;66.18;99070.36;105672;1279;111496;-65
2022/05/26 01:41:19;;;;;;;36.80;24.40;;;;;;;11.60;66.17;99066.19;106006;1276;97848;-67
2022/05/26 01:43:53;;;;;;;36.60;24.40;;;;;;;11.60;66.11;99069.72;105898;1276;108456;-67
2022/05/26 01:46:40;;;;;;;36.30;23.70;;;;;;;11.59;66.24;99068.58;106031;1276;95280;-64
2022/05/26 01:49:08;;;;;;;36.10;24.00;;;;;;;11.58;66.24;99067.59;106109;1276;97922;-65
2022/05/26 01:51:42;;;;;;;38.00;23.00;;;;;;;11.57;66.16;99079.56;106122;1276;112386;-64
2022/05/26 01:54:38;;;;;;;31.30;20.60;;;;;;;11.56;66.12;99083.55;105998;1276;97861;-64
2022/05/26 01:57:14;;;;;;;31.10;20.90;;;;;;;11.52;66.31;99085.77;106022;1276;107570;-64
2022/05/26 01:59:51;;;;;;;32.60;21.40;;;;;;;11.51;66.29;99093.47;105916;1276;97974;-65
2022/05/26 02:02:28;;;;;;;33.00;21.60;;;;;;;11.49;66.33;99096.16;106036;1276;97842;-65
2022/05/26 02:05:10;;;;;;;32.30;21.40;;;;;;;11.47;66.41;99091.48;105967;1276;112062;-66
2022/05/26 02:07:47;;;;;;;34.00;21.80;;;;;;;11.45;66.31;99089.84;106039;1276;97915;-67
2022/05/26 02:10:33;;;;;;;34.90;22.20;;;;;;;11.44;66.57;99088.98;105849;1276;108411;-64
2022/05/26 02:13:07;;;;;;;32.20;21.60;;;;;;;11.44;66.52;99091.89;105939;1276;99033;-65
2022/05/26 02:15:47;;;;;;;33.70;22.30;;;;;;;11.44;66.53;99095.26;105951;1276;95394;-64
2022/05/26 02:18:21;;;;;;;32.50;21.80;;;;;;;11.42;66.36;99099.45;105935;1276;111376;-65
2022/05/26 02:20:54;;;;;;;35.30;21.60;;;;;;;11.39;66.36;99099.86;106044;1276;95447;-65
2022/05/26 02:23:38;;;;;;;37.00;22.30;;;;;;;11.37;66.44;99103.79;106024;1276;107378;-64
2022/05/26 02:26:07;;;;;;;34.20;21.60;;;;;;;11.34;66.54;99104.53;105976;1276;97240;-66
2022/05/26 02:31:26;;;;;;;33.60;21.30;;;;;;;11.28;66.64;99102.11;106051;1276;112061;-66
2022/05/26 02:33:57;;;;;;;35.00;21.10;;;;;;;11.28;66.66;99102.16;106099;1276;95256;-65
2022/05/26 02:36:29;;;;;;;33.80;21.50;;;;;;;11.28;66.66;99103.59;105943;1276;108851;-66
2022/05/26 02:38:57;;;;;;;34.40;21.40;;;;;;;11.26;66.74;99104.20;105926;1276;97901;-65
2022/05/26 02:41:27;;;;;;;31.20;21.30;;;;;;;11.24;66.76;99105.27;105913;1276;97946;-65
2022/05/26 02:43:54;;;;;;;36.20;22.10;;;;;;;11.23;66.70;99110.88;105947;1276;111340;-66
2022/05/26 02:46:37;;;;;;;34.10;21.50;;;;;;;11.20;66.77;99112.35;105966;1276;97979;-65
2022/05/26 02:49:24;;;;;;;32.60;21.70;;;;;;;11.19;66.83;99111.20;105958;1276;108314;-65
2022/05/26 02:52:04;;;;;;;32.80;21.70;;;;;;;11.18;66.76;99110.50;105953;1276;97991;-65
2022/05/26 02:54:53;;;;;;;33.90;22.00;;;;;;;11.15;67.02;99110.69;105937;1276;98554;-66
2022/05/26 02:57:30;;;;;;;33.90;22.50;;;;;;;11.18;67.00;99110.02;105908;1277;110079;-64
2022/05/26 03:00:13;;;;;;;33.30;22.50;;;;;;;11.17;66.94;99105.30;105911;1276;95269;-65
2022/05/26 03:02:52;;;;;;;35.40;23.40;;;;;;;11.16;67.12;99109.08;105910;1276;109231;-65
2022/05/26 03:05:59;;;;;;;32.80;23.30;;;;;;;11.16;66.92;99112.09;105939;1276;97887;-65
2022/05/26 03:08:30;;;;;;;31.50;21.30;;;;;;;11.17;67.14;99108.80;106059;1276;97941;-64
2022/05/26 03:11:06;;;;;;;34.70;22.30;;;;;;;11.20;67.13;99110.92;105980;1276;111493;-65
2022/05/26 03:13:35;;;;;;;34.00;23.10;;;;;;;11.21;67.19;99111.48;106059;1276;98050;-65
2022/05/26 03:16:05;;;;;;;33.60;22.30;;;;;;;11.24;67.18;99114.88;105901;1276;108995;-65
2022/05/26 03:18:35;;;;;;;33.80;22.40;;;;;;;11.23;67.16;99110.43;105890;1276;97976;-65
2022/05/26 03:21:05;;;;;;;34.60;22.20;;;;;;;11.24;67.21;99108.45;105899;1276;96357;-65
2022/05/26 03:23:34;;;;;;;33.40;22.60;;;;;;;11.26;67.25;99104.08;105889;1279;111417;-64
2022/05/26 03:26:04;;;;;;;32.80;22.40;;;;;;;11.27;67.12;99102.73;105941;1276;95407;-65
2022/05/26 03:28:33;;;;;;;34.20;21.70;;;;;;;11.28;67.12;99104.42;105940;1279;106673;-65
2022/05/26 03:31:05;;;;;;;32.10;21.60;;;;;;;11.29;67.09;99110.42;105987;1279;98029;-66
2022/05/26 03:40:46;;;;;;;31.30;20.50;;;;;;;11.30;67.27;99108.20;105963;1278;98092;-66
2022/05/26 03:41:56;;;;;;;31.90;20.30;;;;;;;11.38;67.40;99113.45;106042;1276;107876;-65
2022/05/26 03:44:28;;;;;;;30.90;18.60;;;;;;;11.42;67.41;99111.91;106074;1277;97839;-66
2022/05/26 03:46:56;;;;;;;29.10;18.70;;;;;;;11.44;67.26;99114.96;105985;1276;198692;-68
2022/05/26 03:49:24;;;;;;;31.50;20.20;;;;;;;11.45;67.36;99113.98;106036;1276;112015;-67
2022/05/26 03:51:53;;;;;;;28.10;18.40;;;;;;;11.49;67.35;99115.67;105953;1276;95218;-66
2022/05/26 03:54:21;;;;;;;28.80;18.00;;;;;;;11.52;67.31;99117.73;105951;1276;107868;-65
2022/05/26 03:56:49;;;;;;;25.40;16.50;;;;;;;11.52;67.39;99119.71;106025;1277;97972;-66
2022/05/26 03:59:17;;;;;;;29.10;17.50;;;;;;;11.52;67.35;99127.16;106078;1277;98013;-65
2022/05/26 04:01:46;;;;;;;25.30;16.20;;;;;;;11.53;67.42;99127.45;106091;1276;111445;-67
2022/05/26 04:04:15;;;;;;;27.50;17.30;;;;;;;11.54;67.40;99124.30;105942;1276;96512;-65
2022/05/26 04:06:43;;;;;;;24.30;14.30;;;;;;;11.56;67.36;99123.29;105990;1276;108838;-65
2022/05/26 04:09:12;;;;;;;27.70;15.80;;;;;;;11.57;67.39;99126.98;105894;1276;97912;-66
2022/05/26 04:11:41;;;;;;;25.80;15.30;;;;;;;11.58;67.47;99124.73;105843;1279;97875;-65
2022/05/26 04:14:10;;;;;;;24.70;15.00;;;;;;;11.59;67.49;99126.05;105919;1276;112088;-64
2022/05/26 04:16:39;;;;;;;22.90;13.20;;;;;;;11.62;67.46;99123.36;106019;1276;97888;-65
2022/05/26 04:19:10;;;;;;;25.50;14.50;;;;;;;11.65;67.65;99123.71;106030;1277;108340;-64
2022/05/26 04:22:14;;;;;;;25.00;14.00;;;;;;;11.68;67.67;99118.98;106039;1276;97973;-63
2022/05/26 04:24:26;;;;;;;24.90;13.30;;;;;;;11.72;67.61;99116.60;105943;1277;97855;-65
2022/05/26 04:26:55;;;;;;;24.30;12.40;;;;;;;11.75;67.63;99116.88;105984;1276;111475;-65
2022/05/26 04:29:24;;;;;;;21.50;12.20;;;;;;;11.79;67.65;99120.38;106068;1276;97989;-66
2022/05/26 04:31:52;;;;;;;22.10;13.00;;;;;;;11.82;67.70;99117.41;105917;1276;108024;-65
2022/05/26 04:34:20;;;;;;;20.90;11.40;;;;;;;11.87;67.72;99115.97;105833;1276;96448;-66
2022/05/26 04:36:48;;;;;;;19.90;10.50;;;;;;;11.90;67.59;99109.31;105757;1276;96724;-65
2022/05/26 04:39:17;;;;;;;19.20;10.60;;;;;;;11.95;67.76;99108.85;105885;1277;111978;-65
2022/05/26 04:41:46;;;;;;;19.60;9.90;;;;;;;11.98;67.73;99106.77;106015;1277;97964;-65
2022/05/26 04:44:18;;;;;;;17.80;9.30;;;;;;;12.02;67.70;99106.48;105948;1276;107942;-66
2022/05/26 04:46:46;;;;;;;17.70;9.40;;;;;;;12.06;67.91;99103.15;105952;1276;96310;-65
2022/05/26 04:49:14;;;;;;;18.10;8.20;;;;;;;12.11;67.88;99106.89;105823;1276;96576;-66
2022/05/26 04:51:42;;;;;;;15.90;7.90;;;;;;;12.16;67.84;99107.58;105725;1276;111743;-65
2022/05/26 04:54:10;;;;;;;18.80;7.70;;;;;;;12.20;67.68;99107.39;106040;1276;97962;-64
2022/05/26 04:56:38;;;;;;;18.10;7.70;;;;;;;12.26;67.82;99105.20;105791;1277;107643;-65
2022/05/26 04:59:06;;;;;;;14.70;6.50;;;;;;;12.31;67.73;99108.88;105822;1276;97999;-63
2022/05/26 05:01:35;;;;;;;12.30;6.20;;;;;;;12.36;67.81;99113.80;105756;1277;98081;-66
2022/05/26 05:04:03;;;;;;;13.90;6.60;;;;;;;12.41;67.87;99113.23;106031;1276;111322;-62
2022/05/26 05:06:31;;;;;;;13.30;5.90;;;;;;;12.47;67.87;99111.48;106040;1276;95203;-65
2022/05/26 05:08:59;;;;;;;12.10;5.20;;;;;;;12.54;67.82;99111.67;105974;1276;108221;-65
2022/05/26 05:11:28;;;;;;;10.50;5.50;;;;;;;12.61;67.74;99119.29;105963;1276;95332;-66
2022/05/26 05:14:02;;;;;;;11.40;5.10;;;;;;;12.69;67.79;99119.73;105982;1276;98462;-64
2022/05/26 05:16:33;;;;;;;11.50;5.10;;;;;;;12.76;67.76;99120.92;105972;1276;111165;-65
2022/05/26 05:19:01;;;;;;;11.10;4.90;;;;;;;12.82;67.92;99120.63;105951;1278;97919;-64
2022/05/26 05:21:36;;;;;;;9.50;4.50;;;;;;;12.89;67.85;99117.59;105993;1276;107742;-64
2022/05/26 05:24:14;;;;;;;8.60;4.50;;;;;;;12.95;67.79;99116.39;105900;1278;98013;-64
2022/05/26 05:26:45;;;;;;;9.80;3.80;;;;;;;13.01;67.84;99114.67;105912;1278;97990;-65
2022/05/26 05:29:15;;;;;;;6.60;3.90;;;;;;;13.08;67.78;99116.77;105910;1279;111656;-66
2022/05/26 05:31:47;;;;;;;7.50;3.70;;;;;;;13.15;67.85;99114.38;105950;1278;97981;-65
2022/05/26 05:34:27;;;;;;;8.80;3.70;;;;;;;13.22;67.81;99118.45;105801;1276;107732;-67
2022/05/26 05:36:56;;;;;;;7.90;3.90;;;;;;;13.29;67.84;99116.46;105959;1276;98323;-65
2022/05/26 05:39:25;;;;;;;7.70;3.80;;;;;;;13.35;67.65;99118.08;105994;1276;98055;-65
2022/05/26 05:41:55;;;;;;;10.00;3.90;;;;;;;13.42;67.83;99116.31;105984;1276;111499;-66
2022/05/26 05:44:23;;;;;;;9.90;3.90;;;;;;;13.49;67.73;99114.96;105961;1278;97867;-65
2022/05/26 05:46:54;;;;;;;8.20;3.80;;;;;;;13.57;67.65;99113.42;105884;1276;108375;-66
2022/05/26 05:49:29;;;;;;;7.10;4.00;;;;;;;13.64;67.70;99109.48;105904;1276;97920;-65
2022/05/26 05:52:08;;;;;;;11.00;3.50;;;;;;;13.72;67.88;99110.63;105878;1277;97932;-63
2022/05/26 05:54:38;;;;;;;7.60;3.80;;;;;;;13.79;67.81;99109.29;105844;1276;111445;-64
2022/05/26 05:57:06;;;;;;;6.70;3.60;;;;;;;13.88;67.80;99112.13;105925;1276;98567;-64
2022/05/26 05:59:38;;;;;;;6.70;3.20;;;;;;;13.99;67.71;99110.05;105954;1276;109381;-64
2022/05/26 06:02:08;;;;;;;6.40;3.30;;;;;;;14.09;67.76;99109.55;105853;1277;97934;-65
2022/05/26 06:04:57;;;;;;;8.50;3.40;;;;;;;14.22;67.71;99109.02;105959;1276;98034;-63
2022/05/26 06:07:27;;;;;;;8.20;3.30;;;;;;;14.33;67.51;99104.11;105888;1276;112756;-64
2022/05/26 06:09:55;;;;;;;7.50;3.30;;;;;;;14.42;67.54;99103.28;105865;1276;97894;-66
2022/05/26 06:12:23;;;;;;;7.20;2.90;;;;;;;14.52;67.48;99097.28;105868;1276;107668;-64
2022/05/26 06:14:52;;;;;;;3.60;2.70;;;;;;;14.62;67.47;99102.48;105899;1276;96448;-63
2022/05/26 06:17:21;;;;;;;3.30;2.70;;;;;;;14.72;67.48;99099.07;106022;1276;95284;-64
2022/05/26 06:19:49;;;;;;;3.50;2.80;;;;;;;14.85;67.40;99097.42;105894;1277;112068;-65
2022/05/26 06:22:23;;;;;;;6.50;3.50;;;;;;;15.02;67.32;99097.52;106044;1276;97967;-65
2022/05/26 06:24:53;;;;;;;7.90;2.80;;;;;;;15.24;67.27;99096.07;105904;1276;108350;-64
2022/05/26 06:30:15;;;;;;;8.60;3.40;;;;;;;15.80;67.09;99098.09;105926;1276;95278;-65
2022/05/26 06:38:38;;;;;;;4.10;2.60;;;;;;;16.18;66.96;99095.02;105996;1276;108387;-66
2022/05/26 06:44:00;;;;;;;5.20;2.70;;;;;;;16.41;66.82;99095.40;106017;1277;97883;-66
2022/05/26 06:46:31;;;;;;;5.70;2.80;;;;;;;16.48;66.77;99093.61;105974;1276;111980;-66
2022/05/26 06:49:01;;;;;;;5.90;3.20;;;;;;;16.56;66.70;99092.72;105953;1276;97993;-66
2022/05/26 06:51:30;;;;;;;3.30;2.40;;;;;;;16.61;66.60;99092.55;105785;1278;108411;-65
2022/05/26 06:54:07;;;;;;;4.90;2.90;;;;;;;16.82;66.31;99095.20;105928;1277;97989;-65
2022/05/26 06:56:37;;;;;;;7.90;2.50;;;;;;;17.54;65.23;99094.91;106064;1277;97895;-65
2022/05/26 06:59:06;;;;;;;4.30;2.60;;;;;;;19.08;63.26;99097.80;105993;1277;111968;-65
2022/05/26 07:01:34;;;;;;;6.80;2.80;;;;;;;20.98;62.40;99093.68;105846;1277;96578;-65
2022/05/26 07:04:05;;;;;;;2.30;2.00;;;;;;;22.74;62.11;99091.35;105931;1277;107804;-65
2022/05/26 07:06:36;;;;;;;3.30;2.10;;;;;;;24.39;61.85;99089.48;106007;1276;96412;-65
2022/05/26 07:09:06;;;;;;;5.50;2.30;;;;;;;25.56;61.14;99086.56;106045;1276;97890;-66
2022/05/26 07:11:36;;;;;;;3.90;2.20;;;;;;;26.52;60.83;99085.29;105983;1276;111955;-67
2022/05/26 07:14:07;;;;;;;3.50;1.90;;;;;;;27.79;60.79;99086.17;105987;1276;95644;-65
2022/05/26 07:16:40;;;;;;;;;;;;;;;28.98;60.23;99089.89;105892;1278;108419;-66
2022/05/26 07:19:12;;;;;;;4.80;1.90;;;;;;;29.48;59.46;99086.95;105924;1276;97793;-65
2022/05/26 07:21:51;;;;;;;5.50;1.60;;;;;;;30.23;59.48;99086.31;105951;1276;97834;-65
2022/05/26 07:24:26;;;;;;;2.50;1.50;;;;;;;30.94;58.96;99088.66;105837;1278;111560;-66
2022/05/26 07:26:56;;;;;;;4.70;2.00;;;;;;;31.32;58.55;99082.71;105834;1278;95716;-68
2022/05/26 07:29:29;;;;;;;6.10;1.90;;;;;;;31.91;58.38;99086.31;105997;1276;107196;-69
2022/05/26 07:31:58;;;;;;;6.70;2.00;;;;;;;32.67;57.88;99085.81;105993;1277;97876;-69
2022/05/26 07:34:27;;;;;;;3.90;1.70;;;;;;;33.23;57.63;99077.79;105924;1276;97705;-66
2022/05/26 07:42:36;;;;;;;13.80;2.10;;;;;;;33.92;55.49;99084.21;106034;1276;108338;-65
2022/05/26 07:45:08;;;;;;;3.10;1.10;;;;;;;34.30;55.47;99091.06;106055;1276;97943;-66
2022/05/26 07:47:37;;;;;;;2.30;1.50;;;;;;;34.16;53.64;99091.65;105940;1276;97843;-66
2022/05/26 07:50:11;;;;;;;2.80;1.80;;;;;;;33.60;53.02;99097.02;105994;1276;111304;-66
2022/05/26 07:52:39;;;;;;;5.70;2.20;;;;;;;33.36;53.07;99097.42;106080;1277;98396;-64
2022/05/26 07:55:08;;;;;;;2.40;1.80;;;;;;;33.54;52.61;99102.52;106096;1277;107575;-67
2022/05/26 07:57:36;;;;;;;3.80;2.30;;;;;;;33.37;52.16;99104.17;106031;1276;98621;-67
2022/05/26 08:00:06;;;;;;;3.30;1.80;;;;;;;33.11;51.52;99111.39;105963;1276;97994;-65
2022/05/26 08:02:34;;;;;;;8.20;2.00;;;;;;;33.14;51.19;99112.76;106002;1276;110426;-66
2022/05/26 08:05:05;;;;;;;3.10;2.00;;;;;;;32.95;50.15;99112.55;105984;1277;98325;-66
2022/05/26 08:07:34;;;;;;;4.90;2.20;;;;;;;32.63;49.70;99113.53;105951;1277;107626;-70
2022/05/26 08:10:03;;;;;;;4.70;2.00;;;;;;;32.70;49.94;99115.65;105904;1277;96399;-65
2022/05/26 08:12:32;;;;;;;7.60;2.20;;;;;;;32.47;49.50;99114.70;106004;1277;97998;-66
2022/05/26 08:15:01;;;;;;;4.60;2.10;;;;;;;32.54;49.10;99106.15;105998;1276;111700;-66
2022/05/26 08:17:30;;;;;;;9.30;2.00;;;;;;;32.75;48.64;99107.89;106016;1277;98388;-65
2022/05/26 08:19:59;;;;;;;4.70;1.90;;;;;;;33.08;48.54;99107.63;105956;1277;108402;-65
2022/05/26 08:22:27;;;;;;;5.00;1.60;;;;;;;33.39;47.98;99108.83;105921;1277;97995;-66
2022/05/26 08:24:58;;;;;;;8.00;2.00;;;;;;;33.46;47.47;99110.27;105832;1278;97886;-65
2022/05/26 08:27:26;;;;;;;1.70;1.60;;;;;;;33.62;46.84;99114.59;105950;1276;110965;-67
2022/05/26 08:29:56;;;;;;;3.80;2.00;;;;;;;33.58;46.60;99113.79;106013;1276;98396;-67
2022/05/26 08:32:27;;;;;;;6.50;2.30;;;;;;;33.64;46.19;99109.88;105952;1277;108808;-66
2022/05/26 08:35:01;;;;;;;3.30;1.70;;;;;;;33.14;44.90;99113.89;105977;1278;96597;-66
2022/05/26 08:37:30;;;;;;;6.80;2.10;;;;;;;32.31;45.60;99113.55;105971;1277;97956;-66
2022/05/26 08:39:58;;;;;;;3.90;1.90;;;;;;;31.96;44.94;99114.45;105996;1277;112046;-67
2022/05/26 08:42:31;;;;;;;3.60;1.70;;;;;;;31.06;44.54;99108.48;106002;1277;97868;-65
2022/05/26 08:45:11;;;;;;;2.70;1.60;;;;;;;30.49;43.95;99110.95;105983;1277;108456;-64
2022/05/26 08:47:47;;;;;;;3.00;1.50;;;;;;;30.02;43.60;99110.27;106017;1278;96624;-65
2022/05/26 08:50:21;;;;;;;4.20;1.60;;;;;;;30.14;43.40;99110.41;106043;1276;98096;-69
2022/05/26 08:53:11;;;;;;;4.20;1.80;;;;;;;30.05;42.98;99111.48;106147;1277;111432;-66
2022/05/26 08:55:45;;;;;;;7.40;2.20;;;;;;;30.31;42.80;99110.11;106028;1277;98427;-66
2022/05/26 08:58:19;;;;;;;2.60;1.50;;;;;;;30.70;42.54;99113.00;105826;1277;107780;-66
2022/05/26 09:00:50;;;;;;;3.60;2.00;;;;;;;30.51;41.93;99112.31;105758;1276;97903;-65
2022/05/26 09:03:30;;;;;;;5.20;2.20;;;;;;;30.30;41.79;99107.27;105792;1277;96443;-65
2022/05/26 09:06:07;;;;;;;6.20;2.00;;;;;;;30.41;41.55;99107.16;106053;1278;112686;-65
2022/05/26 09:14:41;;;;;;;2.90;1.60;;;;;;;30.10;40.85;99102.91;107488;1277;97898;-65
2022/05/26 09:17:12;;;;;;;4.20;1.60;;;;;;;30.17;40.56;99108.56;105842;1278;97993;-67
2022/05/26 09:19:44;;;;;;;4.80;1.80;;;;;;;29.81;40.61;99110.34;105876;1277;112084;-66
2022/05/26 09:22:40;;;;;;;4.00;1.90;;;;;;;29.17;40.12;99112.38;106102;1277;97991;-67
2022/05/26 09:25:32;;;;;;;3.70;1.50;;;;;;;28.65;40.07;99110.25;105763;1278;108491;-65
2022/05/26 09:28:02;;;;;;;5.80;1.60;;;;;;;28.15;40.04;99112.39;105944;1277;95681;-65
2022/05/26 09:30:36;;;;;;;1.60;1.20;;;;;;;27.68;39.98;99116.41;106339;1277;96559;-64
2022/05/26 09:33:31;;;;;;;3.20;1.40;;;;;;;27.13;39.89;99112.29;106038;1277;111940;-67
2022/05/26 09:36:24;;;;;;;3.80;1.90;;;;;;;26.53;39.73;99114.45;105969;1277;95711;-64
2022/05/26 09:38:55;;;;;;;3.60;1.60;;;;;;;26.08;39.44;99114.46;105770;1278;107747;-65
2022/05/26 09:41:26;;;;;;;5.80;1.30;;;;;;;25.72;39.29;99110.77;105939;1278;97985;-65
2022/05/26 09:44:01;;;;;;;8.20;1.80;;;;;;;25.38;39.14;99106.86;106004;1277;97979;-65
2022/05/26 09:46:32;;;;;;;3.80;1.90;;;;;;;25.11;39.02;99105.29;105920;1278;111359;-65
2022/05/26 09:49:12;;;;;;;8.00;1.70;;;;;;;24.85;39.31;99106.89;106013;1277;98159;-65
2022/05/26 09:51:45;;;;;;;9.30;2.70;;;;;;;24.86;39.42;99105.19;105909;1277;106729;-65
2022/05/26 09:54:33;;;;;;;4.20;1.90;;;;;;;25.07;39.44;99101.98;105980;1277;97889;-65
2022/05/26 09:57:15;;;;;;;3.70;1.40;;;;;;;24.98;39.22;99096.09;106050;1278;97858;-65
2022/05/26 09:59:46;;;;;;;4.30;1.80;;;;;;;24.52;38.96;99106.44;106003;1277;111428;-64
2022/05/26 10:02:22;;;;;;;3.80;1.70;;;;;;;23.98;39.15;99110.57;105959;1278;98238;-64
2022/05/26 10:04:59;;;;;;;4.40;1.50;;;;;;;23.47;38.90;99113.71;105886;1278;107126;-65
2022/05/26 10:07:41;;;;;;;3.90;1.60;;;;;;;23.29;39.11;99106.56;105815;1281;95669;-65
2022/05/26 10:10:24;;;;;;;3.30;1.50;;;;;;;23.34;39.25;99102.06;106013;1277;95183;-65
2022/05/26 10:13:03;;;;;;;4.90;2.30;;;;;;;23.52;39.30;99101.02;105919;1279;111734;-65
2022/05/26 10:15:56;;;;;;;4.80;1.70;;;;;;;23.63;39.47;99098.98;105942;1281;97995;-64
2022/05/26 10:18:42;;;;;;;3.10;2.00;;;;;;;23.63;39.63;99099.41;105975;1277;108448;-65
2022/05/26 10:21:31;;;;;;;5.00;1.70;;;;;;;23.71;39.44;99091.11;105966;1278;95321;-65
2022/05/26 10:24:14;;;;;;;4.30;1.60;;;;;;;23.55;39.27;99090.61;105967;1277;97864;-65
2022/05/26 10:26:49;;;;;;;4.20;1.40;;;;;;;23.41;39.18;99084.45;105970;1278;111580;-65
2022/05/26 10:29:45;;;;;;;3.90;1.70;;;;;;;23.27;39.33;99086.00;105938;1277;98193;-63
2022/05/26 10:32:37;;;;;;;6.70;1.90;;;;;;;23.17;39.28;99089.36;105936;1281;108478;-65
2022/05/26 10:35:30;;;;;;;1.90;1.50;;;;;;;22.98;39.47;99082.01;105982;1280;96410;-65
2022/05/26 10:38:20;;;;;;;3.10;1.60;;;;;;;22.88;39.54;99083.87;105926;1281;97937;-64
2022/05/26 10:40:54;;;;;;;4.80;1.70;;;;;;;22.67;39.44;99084.04;105942;1281;111397;-67
2022/05/26 10:44:09;;;;;;;8.90;1.90;;;;;;;22.47;39.63;99086.96;105968;1281;97889;-65
2022/05/26 10:46:45;;;;;;;4.90;1.60;;;;;;;22.30;39.57;99094.05;105801;1278;107866;-67
2022/05/26 10:49:45;;;;;;;5.20;1.40;;;;;;;22.18;39.61;99094.96;105971;1278;95296;-64
2022/05/26 10:52:28;;;;;;;8.00;1.60;;;;;;;22.10;39.82;99091.89;105927;1281;97970;-65
2022/05/26 10:54:56;;;;;;;;;;;;;;;21.98;39.72;99096.30;105901;1280;111353;-66
2022/05/26 10:57:56;;;;;;;5.00;2.00;;;;;;;21.82;39.62;99090.64;105915;1278;97894;-66
2022/05/26 11:00:29;;;;;;;5.40;1.40;;;;;;;21.87;39.91;99087.45;105973;1277;108184;-65
2022/05/26 11:03:36;;;;;;;8.30;2.50;;;;;;;22.04;40.18;99087.30;106097;1277;97837;-65
2022/05/26 11:06:15;;;;;;;3.40;1.60;;;;;;;22.15;39.66;99087.21;106054;1277;97846;-66
2022/05/26 11:08:54;;;;;;;5.50;1.70;;;;;;;22.12;39.95;99086.23;106109;1277;111425;-66
2022/05/26 11:11:51;;;;;;;4.80;1.90;;;;;;;22.17;39.93;99092.41;106037;1277;95218;-65
2022/05/26 11:17:33;;;;;;;3.30;1.70;;;;;;;21.97;39.78;99089.53;105969;1277;98069;-65
2022/05/26 11:20:13;;;;;;;2.80;1.90;;;;;;;21.80;40.17;99094.44;105953;1276;95305;-66
2022/05/26 11:22:45;;;;;;;9.00;2.00;;;;;;;21.67;40.16;99089.41;106003;1277;111233;-65
2022/05/26 11:25:21;;;;;;;7.30;1.90;;;;;;;21.65;40.13;99089.37;105871;1277;97708;-66
2022/05/26 11:28:03;;;;;;;1.80;1.70;;;;;;;21.63;40.20;99089.70;106002;1277;108435;-66
2022/05/26 11:36:52;;;;;;;;;;;;;;;21.33;40.20;99095.94;106063;1276;112729;-66
2022/05/26 11:39:29;;;;;;;3.50;1.50;;;;;;;21.27;40.08;99089.81;106033;1277;97892;-65
2022/05/26 11:42:07;;;;;;;4.80;2.30;;;;;;;21.22;40.17;99094.31;105947;1276;107852;-66
2022/05/26 11:44:40;;;;;;;6.60;1.90;;;;;;;21.17;40.07;99089.19;106005;1276;97990;-65
2022/05/26 11:47:31;;;;;;;3.80;2.00;;;;;;;21.07;40.16;99088.20;105953;1276;97898;-65
2022/05/26 11:50:22;;;;;;;5.00;2.20;;;;;;;21.09;40.36;99081.39;105970;1276;112531;-66
2022/05/26 11:52:53;;;;;;;5.60;2.20;;;;;;;21.19;40.39;99078.09;105972;1276;97969;-67
2022/05/26 11:55:30;;;;;;;3.10;1.60;;;;;;;21.23;40.43;99078.23;105938;1276;108468;-67
2022/05/26 11:58:21;;;;;;;4.00;2.10;;;;;;;21.19;40.24;99084.77;105980;1277;98021;-66
2022/05/26 12:01:08;;;;;;;11.80;2.70;;;;;;;21.18;40.36;99084.96;106022;1277;95190;-65
2022/05/26 12:03:54;;;;;;;4.50;2.50;;;;;;;21.21;40.50;99080.94;106030;1277;111639;-65
2022/05/26 12:06:38;;;;;;;4.30;2.20;;;;;;;21.30;40.54;99073.84;105922;1277;95200;-68
2022/05/26 12:09:25;;;;;;;4.70;2.10;;;;;;;21.35;40.79;99075.36;106063;1277;108481;-63
2022/05/26 12:12:18;;;;;;;3.40;1.90;;;;;;;21.35;40.45;99073.77;105691;1277;97860;-67
2022/05/26 12:14:47;;;;;;;5.20;2.20;;;;;;;21.32;40.71;99073.17;105960;1277;98567;-67
2022/05/26 12:17:33;;;;;;;4.30;1.80;;;;;;;21.35;40.81;99080.42;105927;1277;112434;-67
2022/05/26 12:20:11;;;;;;;9.20;2.40;;;;;;;21.39;40.66;99085.50;105967;1277;97988;-68
2022/05/26 12:23:03;;;;;;;7.00;2.00;;;;;;;21.39;40.51;99084.46;106057;1276;105952;-69
2022/05/26 12:25:31;;;;;;;3.50;1.70;;;;;;;21.38;40.74;99077.67;105988;1276;97998;-67
2022/05/26 12:28:05;;;;;;;4.80;2.30;;;;;;;21.47;41.00;99076.80;105960;1276;95246;-67
2022/05/26 12:30:42;;;;;;;3.90;1.90;;;;;;;21.58;40.82;99070.00;105980;1276;112250;-68
2022/05/26 12:33:19;;;;;;;13.70;4.60;;;;;;;21.62;40.79;99070.03;105937;1276;97993;-66
2022/05/26 12:36:09;;;;;;;25.40;10.00;;;;;;;21.62;40.90;99068.64;105927;1275;108321;-67